Time;durP1;ratioP1;P1;durP2;ratioP2;P2;SDS_P1;SDS_P2;PMS_P1;PMS_P2;Temp;Humidity;BMP_temperature;BMP_pressure;BME280_temperature;BME280_humidity;BME280_pressure;Samples;Min_cycle;Max_cycle;Signal;HPM_P1;HPM_P2
2023/02/03 00:01:39;;;;;;;;;;;;;;;2.13;78.59;101705.00;4122283;28;20016;-63
2023/02/03 00:03:41;;;;;;;;;;;;;;;2.14;78.39;101702.22;4121675;28;20037;-63
2023/02/03 00:05:43;;;;;;;;;;;;;;;2.13;78.52;101692.53;4122633;28;20016;-62
2023/02/03 00:07:45;;;;;;;;;;;;;;;2.14;78.56;101688.91;4121778;28;19933;-61
2023/02/03 00:09:47;;;;;;;;;;;;;;;2.13;78.69;101686.34;4121650;28;20025;-62
2023/02/03 00:11:50;;;;;;;;;;;;;;;2.14;78.71;101683.56;4122174;28;20020;-63
2023/02/03 00:13:52;;;;;;;;;;;;;;;2.14;78.81;101683.56;4122466;28;20053;-63
2023/02/03 00:15:54;;;;;;;;;;;;;;;2.19;78.80;101679.78;4121537;28;20020;-63
2023/02/03 00:17:56;;;;;;;;;;;;;;;2.18;79.10;101678.94;4122283;28;20330;-62
2023/02/03 00:20:00;;;;;;;;;;;;;;;2.22;79.42;101679.56;4122735;28;20008;-62
2023/02/03 00:22:02;;;;;;;;;;;;;;;2.27;79.28;101666.78;4121396;28;20020;-62
2023/02/03 00:24:04;;;;;;;;;;;;;;;2.29;79.20;101664.91;4121698;28;20008;-62
2023/02/03 00:26:07;;;;;;;;;;;;;;;2.29;79.20;101663.09;4121304;28;20026;-63
2023/02/03 00:28:10;;;;;;;;;;;;;;;2.32;79.46;101654.00;4120398;28;20349;-63
2023/02/03 00:30:13;;;;;;;;;;;;;;;2.33;79.21;101642.41;4120502;28;20016;-63
2023/02/03 00:32:14;;;;;;;;;;;;;;;2.36;79.43;101639.53;4117846;28;20020;-63
2023/02/03 00:34:17;;;;;;;;;;;;;;;2.37;79.59;101633.25;4121642;28;20028;-62
2023/02/03 00:36:19;;;;;;;;;;;;;;;2.38;79.72;101624.28;4103563;28;20018;-61
2023/02/03 00:38:21;;;;;;;;;;;;;;;2.40;79.79;101621.50;4121726;28;20020;-62
2023/02/03 00:40:23;;;;;;;;;;;;;;;2.40;79.82;101616.19;4122021;28;20472;-62
2023/02/03 00:42:27;;;;;;;;;;;;;;;2.40;80.15;101616.19;4121941;28;20012;-63
2023/02/03 00:44:30;;;;;;;;;;;;;;;2.42;80.62;101624.94;4122276;28;20024;-63
2023/02/03 00:46:34;;;;;;;;;;;;;;;2.45;80.83;101598.91;4120216;28;20503;-63
2023/02/03 00:48:37;;;;;;;;;;;;;;;2.48;81.08;101595.22;4122101;28;19932;-63
2023/02/03 00:50:39;;;;;;;;;;;;;;;2.49;81.35;101581.78;4136589;28;20456;-63
2023/02/03 00:52:41;;;;;;;;;;;;;;;2.52;81.63;101570.91;4121778;28;20033;-63
2023/02/03 00:54:43;;;;;;;;;;;;;;;2.59;81.71;101578.47;4122193;28;20021;-63
2023/02/03 00:56:45;;;;;;;;;;;;;;;2.61;81.47;101580.06;4122112;28;20024;-62
2023/02/03 00:58:47;;;;;;;;;;;;;;;2.63;81.61;101583.50;4121913;28;20696;-63
2023/02/03 01:00:50;;;;;;;;;;;;;;;2.66;81.94;101587.75;4120709;28;20393;-63
2023/02/03 01:02:53;;;;;;;;;;;;;;;2.68;82.29;101585.81;4121826;28;20021;-63
2023/02/03 01:04:55;;;;;;;;;;;;;;;2.70;82.27;101587.44;4121087;28;20025;-63
2023/02/03 01:06:58;;;;;;;;;;;;;;;2.73;82.28;101582.84;4135748;28;20017;-62
2023/02/03 01:09:01;;;;;;;;;;;;;;;2.75;82.54;101583.63;4121069;28;19976;-63
2023/02/03 01:11:05;;;;;;;;;;;;;;;2.72;82.58;101579.34;4122036;28;20025;-63
2023/02/03 01:13:07;;;;;;;;;;;;;;;2.70;83.11;101568.78;4121624;28;20020;-63
2023/02/03 01:15:09;;;;;;;;;;;;;;;2.72;83.52;101570.50;4122150;28;20028;-63
2023/02/03 01:17:14;;;;;;;;;;;;;;;2.71;83.32;101561.63;4120863;28;20471;-63
2023/02/03 01:19:16;;;;;;;;;;;;;;;2.70;83.85;101552.75;4121706;28;20012;-63
2023/02/03 01:21:19;;;;;;;;;;;;;;;2.75;84.08;101570.28;4122151;28;20403;-61
2023/02/03 01:23:21;;;;;;;;;;;;;;;2.78;84.23;101562.06;4121054;28;20467;-62
2023/02/03 01:25:24;;;;;;;;;;;;;;;2.80;84.23;101547.63;4121851;28;20025;-63
2023/02/03 01:27:26;;;;;;;;;;;;;;;2.83;84.32;101549.25;4122297;28;20025;-64
2023/02/03 01:29:30;;;;;;;;;;;;;;;2.82;84.19;101543.06;4121846;28;19972;-63
2023/02/03 01:31:33;;;;;;;;;;;;;;;2.82;84.70;101537.72;4121597;28;20025;-64
2023/02/03 01:33:39;;;;;;;;;;;;;;;2.79;84.77;101535.28;4123000;28;20005;-63
2023/02/03 01:35:41;;;;;;;;;;;;;;;2.78;84.96;101538.91;4122197;28;20021;-63
2023/02/03 01:37:45;;;;;;;;;;;;;;;2.80;85.15;101515.63;4119848;28;20029;-63
2023/02/03 01:39:47;;;;;;;;;;;;;;;2.82;85.38;101516.38;4121655;28;20141;-63
2023/02/03 01:41:49;;;;;;;;;;;;;;;2.84;85.46;101497.59;4121833;28;20012;-63
2023/02/03 01:43:52;;;;;;;;;;;;;;;2.85;85.47;101499.28;4105020;28;20053;-63
2023/02/03 01:45:54;;;;;;;;;;;;;;;2.85;85.50;101502.84;4120855;28;20028;-63
2023/02/03 01:47:56;;;;;;;;;;;;;;;2.85;85.54;101497.50;4121988;28;20381;-62
2023/02/03 01:50:02;;;;;;;;;;;;;;;2.86;85.91;101495.69;4120344;28;19949;-63
2023/02/03 01:52:04;;;;;;;;;;;;;;;2.88;86.30;101491.94;4120387;28;20021;-63
2023/02/03 01:54:06;;;;;;;;;;;;;;;2.87;86.03;101479.56;4121167;28;20024;-62
2023/02/03 01:56:08;;;;;;;;;;;;;;;2.85;86.15;101459.28;4121175;28;20053;-62
2023/02/03 01:58:11;;;;;;;;;;;;;;;2.86;86.28;101469.84;4119838;28;20340;-62
2023/02/03 02:00:13;;;;;;;;;;;;;;;2.84;86.26;101458.44;4136510;28;20397;-63
2023/02/03 02:02:15;;;;;;;;;;;;;;;2.84;86.53;101449.59;4122122;28;20436;-63
2023/02/03 02:04:17;;;;;;;;;;;;;;;2.88;86.64;101446.59;4121300;28;20008;-63
2023/02/03 02:06:21;;;;;;;;;;;;;;;2.90;86.48;101457.16;4119334;28;20043;-63
2023/02/03 02:08:22;;;;;;;;;;;;;;;2.89;86.27;101444.75;4121503;28;20021;-63
2023/02/03 02:10:25;;;;;;;;;;;;;;;2.90;86.16;101451.81;4120133;28;19937;-63
2023/02/03 02:12:27;;;;;;;;;;;;;;;2.91;86.11;101452.66;4121260;28;20045;-63
2023/02/03 02:14:29;;;;;;;;;;;;;;;2.90;85.95;101441.13;4120243;28;20017;-61
2023/02/03 02:16:34;;;;;;;;;;;;;;;2.91;86.21;101431.31;4121046;28;20013;-62
2023/02/03 02:18:39;;;;;;;;;;;;;;;2.93;86.05;101416.03;4120659;28;20029;-63
2023/02/03 02:20:55;;;;;;;;;;;;;;;2.93;85.73;101410.69;4124180;28;20021;-62
2023/02/03 02:23:12;;;;;;;;;;;;;;;2.93;85.72;101406.25;4125898;28;20016;-63
2023/02/03 02:25:18;;;;;;;;;;;;;;;2.92;85.75;101396.50;4090643;28;20349;-63
2023/02/03 02:27:26;;;;;;;;;;;;;;;2.95;85.57;101396.28;4123238;28;20013;-63
2023/02/03 02:29:35;;;;;;;;;;;;;;;2.94;85.51;101378.56;4122819;28;20017;-63
2023/02/03 02:31:44;;;;;;;;;;;;;;;2.92;85.70;101375.16;4122862;28;19929;-62
2023/02/03 02:33:47;;;;;;;;;;;;;;;2.88;85.77;101368.34;4131089;28;20013;-63
2023/02/03 02:35:51;;;;;;;;;;;;;;;2.88;86.06;101357.66;4123152;28;20012;-62
2023/02/03 02:37:58;;;;;;;;;;;;;;;2.86;85.96;101352.44;4122716;28;20020;-63
2023/02/03 02:40:03;;;;;;;;;;;;;;;2.86;85.89;101347.09;4123316;28;20033;-63
2023/02/03 02:42:06;;;;;;;;;;;;;;;2.86;85.80;101335.59;4122796;28;20398;-62
2023/02/03 02:44:10;;;;;;;;;;;;;;;2.82;85.96;101320.75;4124420;28;20370;-63
2023/02/03 02:46:13;;;;;;;;;;;;;;;2.82;85.92;101324.31;4122919;28;20029;-63
2023/02/03 02:48:19;;;;;;;;;;;;;;;2.80;85.88;101307.53;4122686;28;20145;-63
2023/02/03 02:50:23;;;;;;;;;;;;;;;2.77;86.13;101305.09;4130571;28;20522;-63
2023/02/03 02:52:25;;;;;;;;;;;;;;;2.80;86.06;101304.88;4122326;28;20476;-63
2023/02/03 02:54:27;;;;;;;;;;;;;;;2.79;85.79;101300.50;4123391;28;20010;-63
2023/02/03 02:56:30;;;;;;;;;;;;;;;2.75;85.99;101292.84;4122925;28;19980;-63
2023/02/03 02:58:33;;;;;;;;;;;;;;;2.73;85.93;101294.75;4122655;28;20022;-61
2023/02/03 03:00:36;;;;;;;;;;;;;;;2.70;85.97;101286.03;4122753;28;20020;-63
2023/02/03 03:02:38;;;;;;;;;;;;;;;2.69;85.89;101286.13;4123172;28;20017;-63
2023/02/03 03:04:41;;;;;;;;;;;;;;;2.65;85.84;101273.97;4122916;28;20024;-63
2023/02/03 03:06:44;;;;;;;;;;;;;;;2.62;86.25;101271.56;4123887;28;19962;-63
2023/02/03 03:08:47;;;;;;;;;;;;;;;2.57;86.12;101271.03;4122412;28;20029;-63
2023/02/03 03:10:49;;;;;;;;;;;;;;;2.56;86.52;101261.34;4122876;28;20020;-63
2023/02/03 03:12:55;;;;;;;;;;;;;;;2.56;86.67;101256.00;4123054;28;19973;-64
2023/02/03 03:14:58;;;;;;;;;;;;;;;2.56;86.80;101254.19;4123781;28;20358;-62
2023/02/03 03:17:00;;;;;;;;;;;;;;;2.57;86.74;101255.03;4122456;28;20025;-63
2023/02/03 03:19:03;;;;;;;;;;;;;;;2.55;86.82;101255.13;4123681;28;20440;-63
2023/02/03 03:21:06;;;;;;;;;;;;;;;2.53;86.84;101255.25;4122254;28;20018;-63
2023/02/03 03:23:12;;;;;;;;;;;;;;;2.52;87.10;101240.25;4123962;28;20024;-63
2023/02/03 03:25:14;;;;;;;;;;;;;;;2.54;87.39;101232.13;4123390;28;20028;-63
2023/02/03 03:27:18;;;;;;;;;;;;;;;2.55;87.36;101223.13;4122610;28;20022;-62
2023/02/03 03:29:21;;;;;;;;;;;;;;;2.56;87.43;101211.53;4122905;28;20052;-62
2023/02/03 03:31:23;;;;;;;;;;;;;;;2.57;87.35;101212.38;4122939;28;20009;-62
2023/02/03 03:33:24;;;;;;;;;;;;;;;2.54;87.49;101197.47;4123036;28;20021;-63
2023/02/03 03:35:31;;;;;;;;;;;;;;;2.51;87.42;101195.03;4122612;28;20024;-63
2023/02/03 03:37:35;;;;;;;;;;;;;;;2.50;87.67;101186.16;4123128;28;20544;-64
2023/02/03 03:39:40;;;;;;;;;;;;;;;2.51;87.93;101182.53;4123786;28;20029;-63
2023/02/03 03:41:43;;;;;;;;;;;;;;;2.57;88.51;101186.56;4121874;28;20012;-63
2023/02/03 03:43:45;;;;;;;;;;;;;;;2.58;88.24;101190.06;4122000;28;20467;-63
2023/02/03 03:45:49;;;;;;;;;;;;;;;2.60;88.26;101180.13;4122302;28;20017;-63
2023/02/03 03:47:52;;;;;;;;;;;;;;;2.63;88.30;101183.44;4123287;28;20632;-63
2023/02/03 03:49:54;;;;;;;;;;;;;;;2.63;88.17;101179.91;4122939;28;20393;-63
2023/02/03 03:51:56;;;;;;;;;;;;;;;2.65;88.32;101173.50;4121876;28;20024;-63
2023/02/03 03:54:01;;;;;;;;;;;;;;;2.62;88.29;101164.88;4122050;28;19954;-63
2023/02/03 03:56:03;;;;;;;;;;;;;;;2.60;88.73;101154.34;4122585;28;20432;-63
2023/02/03 03:58:06;;;;;;;;;;;;;;;2.63;88.64;101155.91;4123386;28;20024;-63
2023/02/03 04:00:09;;;;;;;;;;;;;;;2.65;88.57;101154.84;4123765;28;20013;-63
2023/02/03 04:02:14;;;;;;;;;;;;;;;2.67;88.83;101152.06;4123457;28;20017;-63
2023/02/03 04:04:16;;;;;;;;;;;;;;;2.70;89.02;101160.66;4122715;28;20026;-62
2023/02/03 04:06:18;;;;;;;;;;;;;;;2.66;89.08;101161.00;4122882;28;20036;-63
2023/02/03 04:08:20;;;;;;;;;;;;;;;2.67;88.95;101152.06;4122814;28;20017;-63
2023/02/03 04:10:25;;;;;;;;;;;;;;;2.66;89.17;101143.19;4122690;28;20367;-64
2023/02/03 04:12:27;;;;;;;;;;;;;;;2.69;89.42;101136.78;4122457;28;20029;-63
2023/02/03 04:14:29;;;;;;;;;;;;;;;2.70;89.34;101135.81;4122548;28;19936;-63
2023/02/03 04:16:31;;;;;;;;;;;;;;;2.73;89.29;101124.03;4123085;28;20083;-63
2023/02/03 04:18:33;;;;;;;;;;;;;;;2.79;89.69;101124.44;4122833;28;20021;-63
2023/02/03 04:20:35;;;;;;;;;;;;;;;2.84;89.46;101121.44;4121345;28;19962;-63
2023/02/03 04:22:37;;;;;;;;;;;;;;;2.89;89.50;101113.91;4122534;28;20029;-62
2023/02/03 04:24:39;;;;;;;;;;;;;;;2.91;89.31;101109.31;4121998;28;20037;-63
2023/02/03 04:26:43;;;;;;;;;;;;;;;2.93;89.50;101098.50;4122321;28;20017;-63
2023/02/03 04:28:45;;;;;;;;;;;;;;;2.97;89.56;101098.16;4122043;28;20024;-62
2023/02/03 04:30:46;;;;;;;;;;;;;;;2.99;89.41;101092.72;4122371;28;20539;-63
2023/02/03 04:32:48;;;;;;;;;;;;;;;3.04;89.36;101093.19;4121530;28;20020;-63
2023/02/03 04:34:50;;;;;;;;;;;;;;;3.05;89.40;101082.41;4122061;28;20002;-63
2023/02/03 04:36:52;;;;;;;;;;;;;;;3.08;89.42;101067.97;4122379;28;20025;-63
2023/02/03 04:38:54;;;;;;;;;;;;;;;3.08;89.69;101070.63;4120648;28;20387;-63
2023/02/03 04:40:56;;;;;;;;;;;;;;;3.10;89.88;101054.50;4122590;28;20014;-63
2023/02/03 04:42:59;;;;;;;;;;;;;;;3.12;90.19;101052.56;4122549;28;20496;-63
2023/02/03 04:45:01;;;;;;;;;;;;;;;3.17;90.10;101056.56;4122025;28;20009;-63
2023/02/03 04:47:03;;;;;;;;;;;;;;;3.20;89.58;101045.66;4123056;28;20008;-63
2023/02/03 04:49:05;;;;;;;;;;;;;;;3.24;89.54;101054.25;4121322;28;20021;-63
2023/02/03 04:51:08;;;;;;;;;;;;;;;3.27;89.25;101047.84;4122153;28;20017;-62
2023/02/03 04:53:10;;;;;;;;;;;;;;;3.29;89.42;101036.09;4122245;28;20020;-63
2023/02/03 04:55:12;;;;;;;;;;;;;;;3.32;89.02;101030.47;4121676;28;19930;-62
2023/02/03 04:57:13;;;;;;;;;;;;;;;3.33;89.43;101031.34;4121979;28;20032;-63
2023/02/03 04:59:17;;;;;;;;;;;;;;;3.36;89.46;101023.09;4121858;28;20024;-62
2023/02/03 05:01:19;;;;;;;;;;;;;;;3.38;89.24;101008.63;4121898;28;20037;-63
2023/02/03 05:03:21;;;;;;;;;;;;;;;3.42;89.44;101009.25;4122222;28;20008;-61
2023/02/03 05:05:23;;;;;;;;;;;;;;;3.44;89.07;101017.97;4122250;28;20358;-63
2023/02/03 05:07:24;;;;;;;;;;;;;;;3.46;89.03;101016.00;4122269;28;20033;-62
2023/02/03 05:09:27;;;;;;;;;;;;;;;3.50;89.16;101017.47;4122064;28;20025;-61
2023/02/03 05:11:28;;;;;;;;;;;;;;;3.52;89.43;101009.34;4121876;28;20012;-62
2023/02/03 05:13:30;;;;;;;;;;;;;;;3.55;89.60;101004.59;4121186;28;20451;-61
2023/02/03 05:15:34;;;;;;;;;;;;;;;3.58;89.58;101003.50;4122229;28;19976;-62
2023/02/03 05:17:38;;;;;;;;;;;;;;;3.60;89.77;100994.41;4121961;28;20016;-63
2023/02/03 05:19:40;;;;;;;;;;;;;;;3.62;89.18;101010.28;4122130;28;20029;-63
2023/02/03 05:21:42;;;;;;;;;;;;;;;3.63;88.74;100993.28;4121669;28;20377;-62
2023/02/03 05:23:44;;;;;;;;;;;;;;;3.67;88.85;100985.84;4122084;28;20048;-63
2023/02/03 05:25:46;;;;;;;;;;;;;;;3.70;88.31;100988.28;4120635;28;20028;-63
2023/02/03 05:27:48;;;;;;;;;;;;;;;3.72;88.07;100989.00;4122333;28;20020;-63
2023/02/03 05:29:50;;;;;;;;;;;;;;;3.75;88.62;100988.75;4121948;28;20008;-63
2023/02/03 05:31:53;;;;;;;;;;;;;;;3.76;87.92;100985.09;4121597;28;20368;-63
2023/02/03 05:33:55;;;;;;;;;;;;;;;3.78;87.59;100985.84;4119619;28;20005;-63
2023/02/03 05:35:57;;;;;;;;;;;;;;;3.81;87.05;100974.03;4122501;28;19934;-62
2023/02/03 05:37:59;;;;;;;;;;;;;;;3.83;86.27;100980.13;4121734;28;20005;-63
2023/02/03 05:42:17;;;;;;;;;;;;;;;3.89;85.68;100976.94;4120515;28;20072;-63
2023/02/03 05:44:19;;;;;;;;;;;;;;;3.90;85.47;100966.13;4120602;28;20009;-63
2023/02/03 05:46:21;;;;;;;;;;;;;;;3.94;85.34;100967.53;4121238;28;20369;-63
2023/02/03 05:48:24;;;;;;;;;;;;;;;3.97;84.71;100971.78;4122260;28;20359;-63
2023/02/03 05:50:29;;;;;;;;;;;;;;;3.97;84.29;100961.94;4121835;28;20045;-63
2023/02/03 05:52:42;;;;;;;;;;;;;;;4.02;84.31;100958.03;4121905;28;20033;-63
2023/02/03 05:54:44;;;;;;;;;;;;;;;4.06;85.71;100948.78;4123664;28;20020;-63
2023/02/03 05:56:46;;;;;;;;;;;;;;;4.09;85.41;100925.31;4123800;28;20024;-63
2023/02/03 05:58:50;;;;;;;;;;;;;;;4.12;85.16;100934.88;4124973;28;20026;-63
2023/02/03 06:00:52;;;;;;;;;;;;;;;4.14;85.08;100938.31;4123301;28;20009;-63
2023/02/03 06:02:54;;;;;;;;;;;;;;;4.15;84.85;100940.84;4124627;28;20028;-62
2023/02/03 06:04:58;;;;;;;;;;;;;;;4.19;84.35;100925.38;4124221;28;20025;-62
2023/02/03 06:07:00;;;;;;;;;;;;;;;4.21;83.55;100923.41;4124639;28;20017;-63
2023/02/03 06:09:02;;;;;;;;;;;;;;;4.22;83.40;100917.09;4124078;28;20024;-62
2023/02/03 06:11:04;;;;;;;;;;;;;;;4.25;83.56;100907.97;4124753;28;20025;-62
2023/02/03 06:13:09;;;;;;;;;;;;;;;4.28;83.41;100899.69;4124216;28;20036;-63
2023/02/03 06:15:11;;;;;;;;;;;;;;;4.30;83.08;100895.88;4124713;28;20025;-62
2023/02/03 06:17:13;;;;;;;;;;;;;;;4.35;83.00;100894.66;4124865;28;20377;-63
2023/02/03 06:19:15;;;;;;;;;;;;;;;4.36;83.38;100886.50;4123931;28;20460;-63
2023/02/03 06:21:19;;;;;;;;;;;;;;;4.40;83.22;100903.94;4121718;28;20008;-63
2023/02/03 06:23:20;;;;;;;;;;;;;;;4.41;83.58;100889.59;4124043;28;20020;-63
2023/02/03 06:25:23;;;;;;;;;;;;;;;4.42;82.46;100872.59;4123974;28;20037;-63
2023/02/03 06:27:25;;;;;;;;;;;;;;;4.45;81.87;100882.16;4123026;28;20041;-63
2023/02/03 06:29:27;;;;;;;;;;;;;;;4.49;82.91;100875.56;4121825;28;20009;-63
2023/02/03 06:31:29;;;;;;;;;;;;;;;4.50;83.37;100871.94;4122021;28;20444;-62
2023/02/03 06:33:31;;;;;;;;;;;;;;;4.54;83.17;100875.16;4123190;28;20447;-63
2023/02/03 06:35:33;;;;;;;;;;;;;;;4.56;83.21;100871.38;4122768;28;20038;-62
2023/02/03 06:37:37;;;;;;;;;;;;;;;4.57;82.44;100872.22;4123595;28;19926;-62
2023/02/03 06:39:39;;;;;;;;;;;;;;;4.60;81.83;100882.66;4121079;28;20020;-62
2023/02/03 06:41:41;;;;;;;;;;;;;;;4.61;82.20;100879.84;4120364;28;20013;-63
2023/02/03 06:43:43;;;;;;;;;;;;;;;4.61;81.76;100873.66;4123947;28;20012;-63
2023/02/03 06:45:45;;;;;;;;;;;;;;;4.65;81.71;100872.38;4120648;28;20020;-63
2023/02/03 06:47:47;;;;;;;;;;;;;;;4.65;81.83;100867.88;4121685;28;20020;-62
2023/02/03 06:49:50;;;;;;;;;;;;;;;4.67;81.22;100867.75;4122619;28;20468;-62
2023/02/03 06:51:52;;;;;;;;;;;;;;;4.69;81.60;100853.25;4136613;28;20033;-62
2023/02/03 06:53:57;;;;;;;;;;;;;;;4.76;81.62;100861.56;4120742;28;20025;-62
2023/02/03 06:56:00;;;;;;;;;;;;;;;4.76;81.31;100852.72;4122732;28;20032;-62
2023/02/03 06:58:02;;;;;;;;;;;;;;;4.79;81.32;100847.09;4122030;28;19926;-61
2023/02/03 07:00:05;;;;;;;;;;;;;;;4.83;80.40;100856.56;4123337;28;20013;-62
2023/02/03 07:02:07;;;;;;;;;;;;;;;4.83;81.13;100854.72;4121749;28;20464;-63
2023/02/03 07:04:09;;;;;;;;;;;;;;;4.88;81.58;100833.72;4121137;28;20045;-62
2023/02/03 07:06:11;;;;;;;;;;;;;;;4.93;81.47;100843.19;4121313;28;20012;-62
2023/02/03 07:08:13;;;;;;;;;;;;;;;5.01;84.88;100829.94;4122152;28;20610;-63
2023/02/03 07:10:16;;;;;;;;;;;;;;;5.02;83.74;100824.47;4122077;28;20049;-61
2023/02/03 07:12:18;;;;;;;;;;;;;;;5.02;83.02;100837.00;4122354;28;20044;-63
2023/02/03 07:14:20;;;;;;;;;;;;;;;5.04;82.29;100824.31;4122256;28;20040;-62
2023/02/03 07:16:22;;;;;;;;;;;;;;;5.09;82.49;100821.22;4121973;28;20040;-62
2023/02/03 07:18:25;;;;;;;;;;;;;;;5.11;82.88;100814.75;4121708;28;20464;-62
2023/02/03 07:20:28;;;;;;;;;;;;;;;5.15;84.78;100800.09;4121131;28;20012;-62
2023/02/03 07:22:29;;;;;;;;;;;;;;;5.17;83.92;100791.91;4122030;28;20093;-62
2023/02/03 07:24:31;;;;;;;;;;;;;;;5.20;83.88;100788.97;4122918;28;20025;-62
2023/02/03 07:26:35;;;;;;;;;;;;;;;5.21;83.25;100779.94;4124214;28;20496;-63
2023/02/03 07:28:37;;;;;;;;;;;;;;;5.23;84.58;100780.66;4123728;28;20578;-61
2023/02/03 07:30:39;;;;;;;;;;;;;;;5.22;83.50;100776.28;4122674;28;20033;-63
2023/02/03 07:32:40;;;;;;;;;;;;;;;5.24;82.93;100768.97;4123432;28;20017;-63
2023/02/03 07:34:42;;;;;;;;;;;;;;;5.27;83.50;100770.50;4122973;28;20024;-63
2023/02/03 07:36:44;;;;;;;;;;;;;;;5.31;84.82;100759.34;4123250;28;20020;-63
2023/02/03 07:38:46;;;;;;;;;;;;;;;5.30;83.96;100752.31;4123149;28;19937;-63
2023/02/03 07:40:48;;;;;;;;;;;;;;;5.33;84.12;100765.44;4122864;28;20022;-63
2023/02/03 07:42:52;;;;;;;;;;;;;;;5.37;84.33;100750.75;4123336;28;20024;-63
2023/02/03 07:44:53;;;;;;;;;;;;;;;5.39;83.68;100750.59;4122991;28;20021;-63
2023/02/03 07:46:55;;;;;;;;;;;;;;;5.37;83.25;100748.06;4122309;28;20499;-63
2023/02/03 07:48:57;;;;;;;;;;;;;;;5.41;82.78;100737.94;4121471;28;20033;-63
2023/02/03 07:50:59;;;;;;;;;;;;;;;5.43;82.89;100745.81;4118329;28;20029;-63
2023/02/03 07:53:01;;;;;;;;;;;;;;;5.46;82.55;100726.78;4121518;28;20016;-63
2023/02/03 07:55:04;;;;;;;;;;;;;;;5.46;82.92;100732.97;4121222;28;20034;-62
2023/02/03 07:57:06;;;;;;;;;;;;;;;5.48;83.51;100727.47;4122676;28;20732;-62
2023/02/03 07:59:09;;;;;;;;;;;;;;;5.47;83.33;100728.47;4121705;28;19977;-63
2023/02/03 08:01:12;;;;;;;;;;;;;;;5.49;82.90;100721.16;4122984;28;20025;-62
2023/02/03 08:03:14;;;;;;;;;;;;;;;5.49;84.18;100713.94;4122086;28;20507;-61
2023/02/03 08:05:16;;;;;;;;;;;;;;;5.54;83.99;100729.59;4121526;28;20428;-63
2023/02/03 08:07:18;;;;;;;;;;;;;;;5.54;84.52;100705.47;4120696;28;20036;-62
2023/02/03 08:09:20;;;;;;;;;;;;;;;5.52;84.11;100710.97;4121544;28;20029;-62
2023/02/03 08:11:21;;;;;;;;;;;;;;;5.55;84.53;100702.66;4121854;28;20025;-61
2023/02/03 08:13:23;;;;;;;;;;;;;;;5.53;83.98;100696.59;4121232;28;20452;-62
2023/02/03 08:15:27;;;;;;;;;;;;;;;5.53;84.39;100698.41;4120520;28;20056;-62
2023/02/03 08:17:29;;;;;;;;;;;;;;;5.54;85.82;100690.22;4120447;28;20460;-60
2023/02/03 08:19:31;;;;;;;;;;;;;;;5.58;84.25;100696.16;4121388;28;19936;-61
2023/02/03 08:21:33;;;;;;;;;;;;;;;5.58;83.61;100697.00;4120837;28;20006;-61
2023/02/03 08:23:35;;;;;;;;;;;;;;;5.61;84.18;100666.38;4121734;28;20463;-62
2023/02/03 08:25:37;;;;;;;;;;;;;;;5.63;85.17;100676.94;4122665;28;20025;-63
2023/02/03 08:27:39;;;;;;;;;;;;;;;5.60;84.54;100675.41;4121147;28;20032;-62
2023/02/03 08:29:41;;;;;;;;;;;;;;;5.68;86.17;100659.44;4121885;28;20029;-62
2023/02/03 08:31:44;;;;;;;;;;;;;;;5.71;87.69;100663.69;4120025;28;20516;-62
2023/02/03 08:33:46;;;;;;;;;;;;;;;5.72;86.91;100657.31;4135920;28;19936;-62
2023/02/03 08:35:48;;;;;;;;;;;;;;;5.72;86.04;100644.78;4121084;28;20451;-63
2023/02/03 08:37:50;;;;;;;;;;;;;;;5.77;85.60;100673.81;4122126;28;20440;-62
2023/02/03 08:39:52;;;;;;;;;;;;;;;5.77;85.21;100647.00;4121492;28;19926;-62
2023/02/03 08:41:54;;;;;;;;;;;;;;;5.80;85.04;100640.50;4121489;28;20016;-62
2023/02/03 08:43:56;;;;;;;;;;;;;;;5.78;84.56;100643.31;4120961;28;20363;-62
2023/02/03 08:46:02;;;;;;;;;;;;;;;5.77;84.23;100650.53;4121585;28;20020;-62
2023/02/03 08:48:05;;;;;;;;;;;;;;;5.80;84.55;100644.03;4120808;28;20048;-62
2023/02/03 08:50:08;;;;;;;;;;;;;;;5.80;85.14;100633.31;4120377;28;20021;-62
2023/02/03 08:52:10;;;;;;;;;;;;;;;5.84;85.36;100639.22;4122525;28;20033;-62
2023/02/03 08:54:12;;;;;;;;;;;;;;;5.83;85.14;100637.50;4119282;28;20359;-62
2023/02/03 08:56:15;;;;;;;;;;;;;;;5.82;84.72;100619.78;4121580;28;20064;-62
2023/02/03 08:58:17;;;;;;;;;;;;;;;5.76;85.48;100631.91;4120856;28;20037;-62
2023/02/03 09:00:19;;;;;;;;;;;;;;;5.79;85.11;100628.94;4120541;28;20013;-62
2023/02/03 09:02:21;;;;;;;;;;;;;;;5.83;85.47;100621.44;4122456;28;20032;-61
2023/02/03 09:04:24;;;;;;;;;;;;;;;5.84;85.36;100615.94;4121283;28;20017;-62
2023/02/03 09:06:26;;;;;;;;;;;;;;;5.84;86.10;100623.97;4122121;28;20041;-59
2023/02/03 09:08:28;;;;;;;;;;;;;;;5.83;87.08;100627.66;4122335;28;20017;-61
2023/02/03 09:10:30;;;;;;;;;;;;;;;5.86;86.36;100624.69;4121519;28;20021;-61
2023/02/03 09:12:32;;;;;;;;;;;;;;;5.86;85.59;100610.41;4121696;28;20024;-61
2023/02/03 09:14:34;;;;;;;;;;;;;;;5.87;87.07;100604.06;4120301;28;20024;-62
2023/02/03 09:16:36;;;;;;;;;;;;;;;5.86;86.12;100605.06;4123131;28;20020;-60
2023/02/03 09:18:38;;;;;;;;;;;;;;;5.86;85.44;100594.34;4122060;28;20024;-62
2023/02/03 09:20:42;;;;;;;;;;;;;;;5.87;85.22;100598.72;4121730;28;19938;-63
2023/02/03 09:22:44;;;;;;;;;;;;;;;5.88;85.05;100584.31;4121038;28;20045;-62
2023/02/03 09:24:47;;;;;;;;;;;;;;;5.87;85.25;100590.66;4120911;28;20024;-60
2023/02/03 09:26:49;;;;;;;;;;;;;;;5.87;86.16;100579.94;4121740;28;20008;-62
2023/02/03 09:28:52;;;;;;;;;;;;;;;5.89;85.54;100588.66;4121314;28;20029;-62
2023/02/03 09:30:54;;;;;;;;;;;;;;;5.90;85.82;100585.00;4121529;28;20603;-63
2023/02/03 09:32:57;;;;;;;;;;;;;;;5.94;85.78;100581.00;4121614;28;20017;-63
2023/02/03 09:34:59;;;;;;;;;;;;;;;5.95;86.24;100580.88;4121487;28;20488;-63
2023/02/03 09:37:03;;;;;;;;;;;;;;;5.95;85.74;100580.03;4121693;28;20048;-62
2023/02/03 09:39:05;;;;;;;;;;;;;;;5.96;85.42;100571.00;4121975;28;20464;-62
2023/02/03 09:41:11;;;;;;;;;;;;;;;5.94;85.62;100541.66;4120102;28;19981;-63
2023/02/03 09:43:15;;;;;;;;;;;;;;;5.94;85.20;100549.72;4122374;28;20336;-63
2023/02/03 09:45:18;;;;;;;;;;;;;;;5.94;85.01;100544.34;4121211;28;20472;-63
2023/02/03 09:47:20;;;;;;;;;;;;;;;5.98;85.40;100539.56;4136964;28;20463;-63
2023/02/03 09:49:23;;;;;;;;;;;;;;;5.98;85.17;100550.28;4121852;28;20030;-62
2023/02/03 09:51:27;;;;;;;;;;;;;;;5.96;85.05;100538.84;4121769;28;20452;-62
2023/02/03 09:53:32;;;;;;;;;;;;;;;5.98;84.98;100542.22;4120911;28;20029;-63
2023/02/03 09:55:35;;;;;;;;;;;;;;;5.99;85.97;100524.28;4121839;28;20028;-62
2023/02/03 09:57:40;;;;;;;;;;;;;;;5.99;85.39;100530.53;4122068;28;20025;-63
2023/02/03 09:59:42;;;;;;;;;;;;;;;6.01;85.20;100519.66;4122300;28;20020;-62
2023/02/03 10:01:45;;;;;;;;;;;;;;;6.05;84.91;100523.69;4122022;28;19933;-62
2023/02/03 10:03:48;;;;;;;;;;;;;;;6.05;84.73;100529.06;4121966;28;20024;-61
2023/02/03 10:05:53;;;;;;;;;;;;;;;6.09;84.97;100557.25;4121958;28;20392;-62
2023/02/03 10:07:57;;;;;;;;;;;;;;;6.10;85.21;100506.16;4120754;28;20032;-62
2023/02/03 10:10:02;;;;;;;;;;;;;;;6.11;85.31;100504.31;4120105;28;20017;-62
2023/02/03 10:12:11;;;;;;;;;;;;;;;6.11;85.22;100489.09;4120680;28;20557;-63
2023/02/03 10:14:19;;;;;;;;;;;;;;;6.11;85.26;100480.19;4120295;28;20383;-62
2023/02/03 10:16:33;;;;;;;;;;;;;;;6.11;85.46;100472.13;4121293;28;20032;-61
2023/02/03 10:18:36;;;;;;;;;;;;;;;6.15;85.17;100460.13;4121177;28;20013;-63
2023/02/03 10:20:39;;;;;;;;;;;;;;;6.15;85.16;100457.44;4120998;28;20025;-62
2023/02/03 10:22:42;;;;;;;;;;;;;;;6.16;85.45;100460.94;4120848;28;19930;-63
2023/02/03 10:24:45;;;;;;;;;;;;;;;6.19;85.63;100468.69;4120342;28;20017;-62
2023/02/03 10:26:48;;;;;;;;;;;;;;;6.18;85.28;100450.94;4120377;28;20021;-62
2023/02/03 10:28:52;;;;;;;;;;;;;;;6.21;85.11;100438.03;4121190;28;20033;-62
2023/02/03 10:30:55;;;;;;;;;;;;;;;6.19;85.14;100448.09;4122797;28;20032;-62
2023/02/03 10:32:58;;;;;;;;;;;;;;;6.20;85.25;100433.66;4121276;28;20029;-62
2023/02/03 10:35:00;;;;;;;;;;;;;;;6.22;85.50;100439.72;4119078;28;20013;-62
2023/02/03 10:37:03;;;;;;;;;;;;;;;6.19;85.56;100448.09;4120153;28;20028;-61
2023/02/03 10:39:07;;;;;;;;;;;;;;;6.23;85.53;100453.97;4121279;28;20021;-61
2023/02/03 10:41:09;;;;;;;;;;;;;;;6.21;85.61;100446.09;4123034;28;20021;-62
2023/02/03 10:45:32;;;;;;;;;;;;;;;6.17;85.55;100455.44;4123782;28;20028;-62